sensor_id;sensor_type;location;lat;lon;timestamp;pressure;altitude;pressure_sealevel;temperature;humidity
64158;BME280;50449;51.528;5.076;2022-12-31T00:01:05;100188.81;;;12.40;73.34
64158;BME280;50449;51.528;5.076;2022-12-31T00:03:31;100193.16;;;12.41;73.24
64158;BME280;50449;51.528;5.076;2022-12-31T00:05:56;100200.19;;;12.42;73.27
64158;BME280;50449;51.528;5.076;2022-12-31T00:08:21;100194.53;;;12.43;73.17
64158;BME280;50449;51.528;5.076;2022-12-31T00:10:46;100192.63;;;12.44;73.39
64158;BME280;50449;51.528;5.076;2022-12-31T00:13:12;100192.34;;;12.45;73.14
64158;BME280;50449;51.528;5.076;2022-12-31T00:15:38;100191.25;;;12.46;73.32
64158;BME280;50449;51.528;5.076;2022-12-31T00:18:03;100192.91;;;12.47;73.24
64158;BME280;50449;51.528;5.076;2022-12-31T00:20:29;100192.91;;;12.47;73.22
64158;BME280;50449;51.528;5.076;2022-12-31T00:22:54;100176.38;;;12.49;73.26
64158;BME280;50449;51.528;5.076;2022-12-31T00:25:20;100174.47;;;12.49;73.43
64158;BME280;50449;51.528;5.076;2022-12-31T00:27:45;100166.09;;;12.51;73.25
64158;BME280;50449;51.528;5.076;2022-12-31T00:30:10;100175.81;;;12.52;73.34
64158;BME280;50449;51.528;5.076;2022-12-31T00:32:36;100176.66;;;12.52;73.14
64158;BME280;50449;51.528;5.076;2022-12-31T00:35:01;100177.47;;;12.53;73.25
64158;BME280;50449;51.528;5.076;2022-12-31T00:37:26;100171.75;;;12.54;73.06
64158;BME280;50449;51.528;5.076;2022-12-31T00:39:52;100175.03;;;12.56;73.10
64158;BME280;50449;51.528;5.076;2022-12-31T00:42:17;100170.69;;;12.55;73.02
64158;BME280;50449;51.528;5.076;2022-12-31T00:44:42;100162.28;;;12.57;73.06
64158;BME280;50449;51.528;5.076;2022-12-31T00:47:08;100172.06;;;12.58;72.99
64158;BME280;50449;51.528;5.076;2022-12-31T00:49:33;100172.84;;;12.59;73.08
64158;BME280;50449;51.528;5.076;2022-12-31T00:51:58;100169.91;;;12.60;73.16
64158;BME280;50449;51.528;5.076;2022-12-31T00:54:23;100159.88;;;12.61;73.12
64158;BME280;50449;51.528;5.076;2022-12-31T00:56:49;100155.25;;;12.61;72.90
64158;BME280;50449;51.528;5.076;2022-12-31T00:59:14;100150.38;;;12.63;73.14
64158;BME280;50449;51.528;5.076;2022-12-31T01:01:40;100143.06;;;12.64;73.21
64158;BME280;50449;51.528;5.076;2022-12-31T01:04:07;100143.88;;;12.64;73.29
64158;BME280;50449;51.528;5.076;2022-12-31T01:06:33;100136.84;;;12.63;73.30
64158;BME280;50449;51.528;5.076;2022-12-31T01:08:58;100135.75;;;12.64;73.39
64158;BME280;50449;51.528;5.076;2022-12-31T01:11:24;100147.66;;;12.63;73.55
64158;BME280;50449;51.528;5.076;2022-12-31T01:16:22;100146.56;;;12.64;73.43
64158;BME280;50449;51.528;5.076;2022-12-31T01:18:48;100150.09;;;12.65;73.45
64158;BME280;50449;51.528;5.076;2022-12-31T01:21:13;100144.97;;;12.63;73.54
64158;BME280;50449;51.528;5.076;2022-12-31T01:23:39;100152.81;;;12.65;73.51
64158;BME280;50449;51.528;5.076;2022-12-31T01:26:05;100163.38;;;12.66;73.60
64158;BME280;50449;51.528;5.076;2022-12-31T01:28:31;100154.69;;;12.64;73.86
64158;BME280;50449;51.528;5.076;2022-12-31T01:30:56;100170.97;;;12.64;73.87
64158;BME280;50449;51.528;5.076;2022-12-31T01:33:22;100163.63;;;12.65;73.82
64158;BME280;50449;51.528;5.076;2022-12-31T01:35:48;100173.66;;;12.64;74.17
64158;BME280;50449;51.528;5.076;2022-12-31T01:38:13;100186.41;;;12.64;74.31
64158;BME280;50449;51.528;5.076;2022-12-31T01:40:39;100201.56;;;12.65;74.23
64158;BME280;50449;51.528;5.076;2022-12-31T01:43:10;100230.56;;;12.64;74.39
64158;BME280;50449;51.528;5.076;2022-12-31T01:45:39;100272.03;;;12.65;74.40
64158;BME280;50449;51.528;5.076;2022-12-31T01:48:06;100253.59;;;12.67;74.34
64158;BME280;50449;51.528;5.076;2022-12-31T01:50:34;100222.19;;;12.66;74.39
64158;BME280;50449;51.528;5.076;2022-12-31T01:53:01;100176.94;;;12.66;74.49
64158;BME280;50449;51.528;5.076;2022-12-31T01:58:14;100194.00;;;12.67;74.17
64158;BME280;50449;51.528;5.076;2022-12-31T02:00:42;100210.25;;;12.67;74.33
64158;BME280;50449;51.528;5.076;2022-12-31T02:03:08;100210.00;;;12.68;74.48
64158;BME280;50449;51.528;5.076;2022-12-31T02:05:45;100213.78;;;12.67;74.23
64158;BME280;50449;51.528;5.076;2022-12-31T02:08:12;100212.69;;;12.68;74.32
64158;BME280;50449;51.528;5.076;2022-12-31T02:10:37;100212.41;;;12.70;74.32
64158;BME280;50449;51.528;5.076;2022-12-31T02:13:03;100227.88;;;12.69;74.30
64158;BME280;50449;51.528;5.076;2022-12-31T02:15:32;100221.63;;;12.69;74.40
64158;BME280;50449;51.528;5.076;2022-12-31T02:18:08;100234.94;;;12.70;74.52
64158;BME280;50449;51.528;5.076;2022-12-31T02:20:40;100235.75;;;12.71;74.32
64158;BME280;50449;51.528;5.076;2022-12-31T02:23:23;100232.75;;;12.72;74.13
64158;BME280;50449;51.528;5.076;2022-12-31T02:31:05;100243.59;;;12.72;74.40
64158;BME280;50449;51.528;5.076;2022-12-31T02:33:40;100257.97;;;12.73;74.50
64158;BME280;50449;51.528;5.076;2022-12-31T02:36:10;100253.34;;;12.73;74.29
64158;BME280;50449;51.528;5.076;2022-12-31T02:38:38;100254.16;;;12.74;74.36
64158;BME280;50449;51.528;5.076;2022-12-31T02:41:04;100244.13;;;12.74;74.13
64158;BME280;50449;51.528;5.076;2022-12-31T02:43:30;100238.72;;;12.74;74.05
64158;BME280;50449;51.528;5.076;2022-12-31T02:49:18;100246.59;;;12.76;74.10
64158;BME280;50449;51.528;5.076;2022-12-31T02:51:50;100233.03;;;12.76;74.27
64158;BME280;50449;51.528;5.076;2022-12-31T02:56:50;100231.13;;;12.76;74.14
64158;BME280;50449;51.528;5.076;2022-12-31T03:02:05;100234.66;;;12.77;74.24
64158;BME280;50449;51.528;5.076;2022-12-31T03:04:45;100227.34;;;12.77;74.15
64158;BME280;50449;51.528;5.076;2022-12-31T03:07:12;100218.13;;;12.78;73.96
64158;BME280;50449;51.528;5.076;2022-12-31T03:09:38;100220.03;;;12.78;73.86
64158;BME280;50449;51.528;5.076;2022-12-31T03:12:04;100219.75;;;12.80;74.07
64158;BME280;50449;51.528;5.076;2022-12-31T03:14:48;100217.03;;;12.80;73.99
64158;BME280;50449;51.528;5.076;2022-12-31T03:17:14;100205.13;;;12.81;73.84
64158;BME280;50449;51.528;5.076;2022-12-31T03:19:39;100208.66;;;12.81;73.82
64158;BME280;50449;51.528;5.076;2022-12-31T03:22:23;100202.41;;;12.81;73.96
64158;BME280;50449;51.528;5.076;2022-12-31T03:27:38;100206.75;;;12.82;73.83
64158;BME280;50449;51.528;5.076;2022-12-31T03:30:03;100203.22;;;12.81;73.90
64158;BME280;50449;51.528;5.076;2022-12-31T03:32:28;100195.63;;;12.83;73.68
64158;BME280;50449;51.528;5.076;2022-12-31T03:34:54;100198.34;;;12.83;73.67
64158;BME280;50449;51.528;5.076;2022-12-31T03:37:20;100188.56;;;12.82;73.74
64158;BME280;50449;51.528;5.076;2022-12-31T03:39:45;100189.41;;;12.83;73.76
64158;BME280;50449;51.528;5.076;2022-12-31T03:42:10;100189.41;;;12.83;73.81
64158;BME280;50449;51.528;5.076;2022-12-31T03:44:36;100185.59;;;12.84;73.87
64158;BME280;50449;51.528;5.076;2022-12-31T03:47:01;100173.97;;;12.83;73.58
64158;BME280;50449;51.528;5.076;2022-12-31T03:49:26;100178.28;;;12.84;73.55
64158;BME280;50449;51.528;5.076;2022-12-31T03:51:51;100179.38;;;12.83;73.42
64158;BME280;50449;51.528;5.076;2022-12-31T03:54:16;100178.28;;;12.84;73.41
64158;BME280;50449;51.528;5.076;2022-12-31T03:56:42;100183.72;;;12.84;73.49
64158;BME280;50449;51.528;5.076;2022-12-31T03:59:07;100204.31;;;12.85;73.44
64158;BME280;50449;51.528;5.076;2022-12-31T04:01:32;100198.91;;;12.85;73.55
64158;BME280;50449;51.528;5.076;2022-12-31T04:03:57;100201.88;;;12.84;73.41
64158;BME280;50449;51.528;5.076;2022-12-31T04:06:23;100204.59;;;12.84;73.43
64158;BME280;50449;51.528;5.076;2022-12-31T04:08:48;100199.41;;;12.82;73.55
64158;BME280;50449;51.528;5.076;2022-12-31T04:11:13;100199.41;;;12.82;73.49
64158;BME280;50449;51.528;5.076;2022-12-31T04:13:38;100193.19;;;12.82;73.75
64158;BME280;50449;51.528;5.076;2022-12-31T04:16:04;100189.94;;;12.80;73.80
64158;BME280;50449;51.528;5.076;2022-12-31T04:18:29;100181.28;;;12.77;73.96
64158;BME280;50449;51.528;5.076;2022-12-31T04:20:55;100173.16;;;12.77;73.88
64158;BME280;50449;51.528;5.076;2022-12-31T04:23:24;100175.03;;;12.77;73.91
64158;BME280;50449;51.528;5.076;2022-12-31T04:25:50;100178.84;;;12.76;73.97
64158;BME280;50449;51.528;5.076;2022-12-31T04:28:15;100171.50;;;12.76;74.03
64158;BME280;50449;51.528;5.076;2022-12-31T04:30:40;100162.56;;;12.76;73.88
64158;BME280;50449;51.528;5.076;2022-12-31T04:33:05;100162.56;;;12.76;74.30
64158;BME280;50449;51.528;5.076;2022-12-31T04:35:31;100172.59;;;12.75;73.85
64158;BME280;50449;51.528;5.076;2022-12-31T04:37:56;100179.63;;;12.76;74.06
64158;BME280;50449;51.528;5.076;2022-12-31T04:40:21;100181.53;;;12.76;74.38
64158;BME280;50449;51.528;5.076;2022-12-31T04:42:46;100184.25;;;12.76;74.24
64158;BME280;50449;51.528;5.076;2022-12-31T04:45:12;100190.75;;;12.75;74.17
64158;BME280;50449;51.528;5.076;2022-12-31T04:47:37;100199.72;;;12.75;74.21
64158;BME280;50449;51.528;5.076;2022-12-31T04:50:02;100205.13;;;12.75;74.12
64158;BME280;50449;51.528;5.076;2022-12-31T04:52:28;100207.84;;;12.75;74.26
64158;BME280;50449;51.528;5.076;2022-12-31T04:54:53;100208.91;;;12.74;74.50
64158;BME280;50449;51.528;5.076;2022-12-31T04:57:18;100214.31;;;12.74;74.42
64158;BME280;50449;51.528;5.076;2022-12-31T04:59:43;100221.66;;;12.74;74.59
64158;BME280;50449;51.528;5.076;2022-12-31T05:02:09;100216.22;;;12.74;74.55
64158;BME280;50449;51.528;5.076;2022-12-31T05:04:34;100219.19;;;12.72;74.62
64158;BME280;50449;51.528;5.076;2022-12-31T05:06:59;100221.91;;;12.72;74.67
64158;BME280;50449;51.528;5.076;2022-12-31T05:09:24;100214.59;;;12.73;74.68
64158;BME280;50449;51.528;5.076;2022-12-31T05:11:51;100215.41;;;12.73;74.81
64158;BME280;50449;51.528;5.076;2022-12-31T05:14:16;100212.72;;;12.73;74.46
64158;BME280;50449;51.528;5.076;2022-12-31T05:16:42;100208.09;;;12.74;74.94
64158;BME280;50449;51.528;5.076;2022-12-31T05:19:07;100216.22;;;12.74;74.72
64158;BME280;50449;51.528;5.076;2022-12-31T05:21:33;100206.19;;;12.74;74.74
64158;BME280;50449;51.528;5.076;2022-12-31T05:23:58;100220.56;;;12.75;74.66
64158;BME280;50449;51.528;5.076;2022-12-31T05:26:24;100219.47;;;12.76;74.61
64158;BME280;50449;51.528;5.076;2022-12-31T05:28:49;100218.69;;;12.75;74.73
64158;BME280;50449;51.528;5.076;2022-12-31T05:31:14;100216.78;;;12.76;74.57
64158;BME280;50449;51.528;5.076;2022-12-31T05:33:39;100223.00;;;12.76;74.89
64158;BME280;50449;51.528;5.076;2022-12-31T05:36:05;100237.34;;;12.77;75.18
64158;BME280;50449;51.528;5.076;2022-12-31T05:38:30;100223.81;;;12.77;75.54
64158;BME280;50449;51.528;5.076;2022-12-31T05:40:59;100237.66;;;12.75;75.50
64158;BME280;50449;51.528;5.076;2022-12-31T05:43:25;100243.88;;;12.76;75.38
64158;BME280;50449;51.528;5.076;2022-12-31T05:45:50;100243.88;;;12.76;75.34
64158;BME280;50449;51.528;5.076;2022-12-31T05:48:15;100248.19;;;12.77;74.98
64158;BME280;50449;51.528;5.076;2022-12-31T05:50:41;100242.25;;;12.80;74.99
64158;BME280;50449;51.528;5.076;2022-12-31T05:53:06;100239.56;;;12.80;75.09
64158;BME280;50449;51.528;5.076;2022-12-31T05:55:31;100245.78;;;12.81;74.99
64158;BME280;50449;51.528;5.076;2022-12-31T05:57:56;100221.94;;;12.83;75.25
64158;BME280;50449;51.528;5.076;2022-12-31T06:00:22;100234.66;;;12.82;75.35
64158;BME280;50449;51.528;5.076;2022-12-31T06:02:47;100240.06;;;12.82;75.35
64158;BME280;50449;51.528;5.076;2022-12-31T06:05:12;100238.19;;;12.83;75.70
64158;BME280;50449;51.528;5.076;2022-12-31T06:07:37;100237.38;;;12.82;75.74
64158;BME280;50449;51.528;5.076;2022-12-31T06:10:03;100227.38;;;12.83;75.96
64158;BME280;50449;51.528;5.076;2022-12-31T06:12:29;100228.97;;;12.84;76.08
64158;BME280;50449;51.528;5.076;2022-12-31T06:14:54;100247.94;;;12.84;75.70
64158;BME280;50449;51.528;5.076;2022-12-31T06:17:19;100249.31;;;12.86;75.93
64158;BME280;50449;51.528;5.076;2022-12-31T06:19:46;100237.38;;;12.87;76.18
64158;BME280;50449;51.528;5.076;2022-12-31T06:22:11;100236.31;;;12.88;76.19
64158;BME280;50449;51.528;5.076;2022-12-31T06:24:36;100227.88;;;12.90;76.02
64158;BME280;50449;51.528;5.076;2022-12-31T06:27:02;100235.19;;;12.89;76.27
64158;BME280;50449;51.528;5.076;2022-12-31T06:29:27;100232.25;;;12.91;76.10
64158;BME280;50449;51.528;5.076;2022-12-31T06:31:52;100233.03;;;12.91;76.05
64158;BME280;50449;51.528;5.076;2022-12-31T06:34:17;100236.56;;;12.92;76.45
64158;BME280;50449;51.528;5.076;2022-12-31T06:36:43;100243.06;;;12.91;76.60
64158;BME280;50449;51.528;5.076;2022-12-31T06:39:08;100241.97;;;12.92;76.56
64158;BME280;50449;51.528;5.076;2022-12-31T06:41:33;100240.91;;;12.93;77.19
64158;BME280;50449;51.528;5.076;2022-12-31T06:43:58;100231.69;;;12.94;76.70
64158;BME280;50449;51.528;5.076;2022-12-31T06:46:24;100234.94;;;12.96;76.72
64158;BME280;50449;51.528;5.076;2022-12-31T06:48:49;100228.44;;;12.97;76.83
64158;BME280;50449;51.528;5.076;2022-12-31T06:51:15;100234.66;;;12.97;76.77
64158;BME280;50449;51.528;5.076;2022-12-31T06:53:41;100249.56;;;13.00;77.14
64158;BME280;50449;51.528;5.076;2022-12-31T06:56:08;100235.75;;;13.02;76.92
64158;BME280;50449;51.528;5.076;2022-12-31T06:58:34;100259.91;;;13.03;76.89
64158;BME280;50449;51.528;5.076;2022-12-31T07:01:05;100264.22;;;13.04;77.12
64158;BME280;50449;51.528;5.076;2022-12-31T07:03:43;100255.00;;;13.05;77.05
64158;BME280;50449;51.528;5.076;2022-12-31T07:06:15;100259.91;;;13.08;77.20
64158;BME280;50449;51.528;5.076;2022-12-31T07:11:27;100252.03;;;13.12;77.39
64158;BME280;50449;51.528;5.076;2022-12-31T07:21:52;100244.19;;;13.15;77.33
64158;BME280;50449;51.528;5.076;2022-12-31T07:24:18;100243.06;;;13.16;77.32
64158;BME280;50449;51.528;5.076;2022-12-31T07:37:17;100237.66;;;13.27;77.03
64158;BME280;50449;51.528;5.076;2022-12-31T07:39:52;100233.06;;;13.27;77.09
64158;BME280;50449;51.528;5.076;2022-12-31T07:42:26;100234.69;;;13.28;77.04
64158;BME280;50449;51.528;5.076;2022-12-31T07:47:24;100235.22;;;13.30;77.41
64158;BME280;50449;51.528;5.076;2022-12-31T07:49:50;100249.06;;;13.34;77.18
64158;BME280;50449;51.528;5.076;2022-12-31T07:52:15;100240.94;;;13.34;77.16
64158;BME280;50449;51.528;5.076;2022-12-31T07:54:41;100249.31;;;13.37;77.13
64158;BME280;50449;51.528;5.076;2022-12-31T07:57:07;100264.53;;;13.38;77.04
64158;BME280;50449;51.528;5.076;2022-12-31T08:02:14;100267.75;;;13.40;77.29
64158;BME280;50449;51.528;5.076;2022-12-31T08:12:10;100318.22;;;13.47;77.42
64158;BME280;50449;51.528;5.076;2022-12-31T08:14:41;100323.41;;;13.48;77.27
64158;BME280;50449;51.528;5.076;2022-12-31T08:17:10;100331.53;;;13.48;77.17
64158;BME280;50449;51.528;5.076;2022-12-31T08:19:36;100331.25;;;13.50;76.77
64158;BME280;50449;51.528;5.076;2022-12-31T08:27:24;100365.44;;;13.56;77.17
64158;BME280;50449;51.528;5.076;2022-12-31T08:30:09;100379.53;;;13.58;77.02
64158;BME280;50449;51.528;5.076;2022-12-31T08:32:41;100386.88;;;13.57;77.15
64158;BME280;50449;51.528;5.076;2022-12-31T08:37:39;100390.94;;;13.60;76.75
64158;BME280;50449;51.528;5.076;2022-12-31T08:42:41;100405.59;;;13.64;76.99
64158;BME280;50449;51.528;5.076;2022-12-31T08:45:18;100421.59;;;13.66;76.71
64158;BME280;50449;51.528;5.076;2022-12-31T08:50:18;100425.69;;;13.68;77.12
64158;BME280;50449;51.528;5.076;2022-12-31T08:52:43;100420.78;;;13.70;77.00
64158;BME280;50449;51.528;5.076;2022-12-31T08:55:13;100434.91;;;13.72;77.00
64158;BME280;50449;51.528;5.076;2022-12-31T08:57:47;100433.81;;;13.73;77.00
64158;BME280;50449;51.528;5.076;2022-12-31T09:00:16;100429.78;;;13.76;76.98
64158;BME280;50449;51.528;5.076;2022-12-31T09:05:45;100436.56;;;13.78;76.88
64158;BME280;50449;51.528;5.076;2022-12-31T09:10:45;100475.09;;;13.80;76.83
64158;BME280;50449;51.528;5.076;2022-12-31T09:15:43;100475.94;;;13.81;76.81
64158;BME280;50449;51.528;5.076;2022-12-31T09:18:11;100480.00;;;13.83;77.03
64158;BME280;50449;51.528;5.076;2022-12-31T09:20:37;100478.09;;;13.84;76.45
64158;BME280;50449;51.528;5.076;2022-12-31T09:23:02;100499.53;;;13.85;76.60
64158;BME280;50449;51.528;5.076;2022-12-31T09:25:28;100494.66;;;13.88;76.82
64158;BME280;50449;51.528;5.076;2022-12-31T09:30:29;100506.06;;;13.90;76.84
64158;BME280;50449;51.528;5.076;2022-12-31T09:33:01;100502.25;;;13.91;76.71
64158;BME280;50449;51.528;5.076;2022-12-31T09:35:47;100513.66;;;13.93;76.75
64158;BME280;50449;51.528;5.076;2022-12-31T09:43:59;100515.00;;;13.95;76.41
64158;BME280;50449;51.528;5.076;2022-12-31T09:56:46;100511.50;;;14.00;76.35
64158;BME280;50449;51.528;5.076;2022-12-31T10:04:55;100523.16;;;14.05;76.27
64158;BME280;50449;51.528;5.076;2022-12-31T10:10:02;100526.44;;;14.07;76.17
64158;BME280;50449;51.528;5.076;2022-12-31T10:12:41;100519.09;;;14.08;76.18
64158;BME280;50449;51.528;5.076;2022-12-31T10:20:28;100505.50;;;14.13;76.30
64158;BME280;50449;51.528;5.076;2022-12-31T10:30:20;100489.75;;;14.20;76.40
64158;BME280;50449;51.528;5.076;2022-12-31T10:32:57;100485.97;;;14.21;76.33
64158;BME280;50449;51.528;5.076;2022-12-31T10:35:37;100497.63;;;14.22;76.37
64158;BME280;50449;51.528;5.076;2022-12-31T10:43:07;100501.16;;;14.22;76.17
64158;BME280;50449;51.528;5.076;2022-12-31T10:58:40;100521.53;;;14.30;75.67
64158;BME280;50449;51.528;5.076;2022-12-31T11:13:57;100530.50;;;14.36;76.24
64158;BME280;50449;51.528;5.076;2022-12-31T11:19:01;100518.53;;;14.42;75.78
64158;BME280;50449;51.528;5.076;2022-12-31T11:32:36;100538.13;;;14.44;75.95
64158;BME280;50449;51.528;5.076;2022-12-31T11:35:11;100537.81;;;14.45;76.14
64158;BME280;50449;51.528;5.076;2022-12-31T11:37:44;100546.53;;;14.47;75.98
64158;BME280;50449;51.528;5.076;2022-12-31T11:42:49;100542.44;;;14.50;75.59
64158;BME280;50449;51.528;5.076;2022-12-31T11:51:05;100522.91;;;14.53;75.73
64158;BME280;50449;51.528;5.076;2022-12-31T11:58:33;100530.22;;;14.58;75.49
64158;BME280;50449;51.528;5.076;2022-12-31T12:01:13;100538.94;;;14.60;75.13
64158;BME280;50449;51.528;5.076;2022-12-31T12:03:40;100535.13;;;14.61;75.25
64158;BME280;50449;51.528;5.076;2022-12-31T12:06:12;100543.81;;;14.63;75.40
64158;BME280;50449;51.528;5.076;2022-12-31T12:08:38;100543.56;;;14.64;75.47
64158;BME280;50449;51.528;5.076;2022-12-31T12:11:05;100541.63;;;14.65;75.48
64158;BME280;50449;51.528;5.076;2022-12-31T12:13:32;100533.47;;;14.65;75.30
64158;BME280;50449;51.528;5.076;2022-12-31T12:15:59;100532.69;;;14.64;75.54
64158;BME280;50449;51.528;5.076;2022-12-31T12:18:44;100531.84;;;14.64;75.40
64158;BME280;50449;51.528;5.076;2022-12-31T12:21:17;100530.78;;;14.65;75.50
64158;BME280;50449;51.528;5.076;2022-12-31T12:26:35;100528.84;;;14.65;75.14
64158;BME280;50449;51.528;5.076;2022-12-31T12:29:11;100545.16;;;14.65;75.75
64158;BME280;50449;51.528;5.076;2022-12-31T12:31:37;100537.00;;;14.65;75.46
64158;BME280;50449;51.528;5.076;2022-12-31T12:34:02;100528.03;;;14.65;75.67
64158;BME280;50449;51.528;5.076;2022-12-31T12:36:28;100524.22;;;14.66;75.24
64158;BME280;50449;51.528;5.076;2022-12-31T12:39:00;100515.00;;;14.67;75.70
64158;BME280;50449;51.528;5.076;2022-12-31T12:41:25;100516.63;;;14.68;75.44
64158;BME280;50449;51.528;5.076;2022-12-31T12:46:30;100512.78;;;14.69;75.59
64158;BME280;50449;51.528;5.076;2022-12-31T12:48:56;100521.78;;;14.69;75.65
64158;BME280;50449;51.528;5.076;2022-12-31T13:19:41;100507.09;;;14.76;75.45
64158;BME280;50449;51.528;5.076;2022-12-31T13:27:33;100493.22;;;14.77;75.09
64158;BME280;50449;51.528;5.076;2022-12-31T13:30:00;100485.88;;;14.78;75.20
64158;BME280;50449;51.528;5.076;2022-12-31T13:32:39;100490.50;;;14.77;74.88
64158;BME280;50449;51.528;5.076;2022-12-31T13:35:18;100508.44;;;14.78;75.11
64158;BME280;50449;51.528;5.076;2022-12-31T13:37:45;100516.31;;;14.80;75.36
64158;BME280;50449;51.528;5.076;2022-12-31T13:40:29;100517.13;;;14.80;74.96
64158;BME280;50449;51.528;5.076;2022-12-31T13:42:59;100511.97;;;14.79;74.72
64158;BME280;50449;51.528;5.076;2022-12-31T13:45:28;100519.84;;;14.80;74.42
64158;BME280;50449;51.528;5.076;2022-12-31T13:47:56;100512.81;;;14.79;74.88
64158;BME280;50449;51.528;5.076;2022-12-31T13:50:25;100530.72;;;14.80;74.79
64158;BME280;50449;51.528;5.076;2022-12-31T13:52:55;100520.66;;;14.81;74.94
64158;BME280;50449;51.528;5.076;2022-12-31T13:55:26;100526.91;;;14.81;74.78
64158;BME280;50449;51.528;5.076;2022-12-31T14:00:23;100528.81;;;14.81;74.53
64158;BME280;50449;51.528;5.076;2022-12-31T14:07:52;100521.22;;;14.83;74.54
64158;BME280;50449;51.528;5.076;2022-12-31T14:10:20;100519.03;;;14.85;74.79
64158;BME280;50449;51.528;5.076;2022-12-31T14:20:28;100514.38;;;14.90;74.15
64158;BME280;50449;51.528;5.076;2022-12-31T14:25:26;100532.59;;;14.90;73.99
64158;BME280;50449;51.528;5.076;2022-12-31T14:27:53;100536.13;;;14.90;73.98
64158;BME280;50449;51.528;5.076;2022-12-31T14:30:20;100527.16;;;14.90;73.93
64158;BME280;50449;51.528;5.076;2022-12-31T14:37:57;100542.38;;;14.91;74.20
64158;BME280;50449;51.528;5.076;2022-12-31T14:43:20;100526.88;;;14.91;74.37
64158;BME280;50449;51.528;5.076;2022-12-31T14:46:02;100544.84;;;14.92;74.35
64158;BME280;50449;51.528;5.076;2022-12-31T14:48:44;100542.13;;;14.92;74.33
64158;BME280;50449;51.528;5.076;2022-12-31T14:51:12;100549.97;;;14.94;74.05
64158;BME280;50449;51.528;5.076;2022-12-31T14:53:37;100549.97;;;14.94;74.28
64158;BME280;50449;51.528;5.076;2022-12-31T14:56:04;100558.16;;;14.94;74.29
64158;BME280;50449;51.528;5.076;2022-12-31T14:58:30;100556.25;;;14.95;73.80
64158;BME280;50449;51.528;5.076;2022-12-31T15:00:57;100558.69;;;14.96;74.15
64158;BME280;50449;51.528;5.076;2022-12-31T15:03:33;100558.97;;;14.95;74.06
64158;BME280;50449;51.528;5.076;2022-12-31T15:24:23;100535.03;;;14.97;74.02
64158;BME280;50449;51.528;5.076;2022-12-31T15:26:53;100520.34;;;14.98;73.33
64158;BME280;50449;51.528;5.076;2022-12-31T15:31:50;100523.06;;;14.98;73.48
64158;BME280;50449;51.528;5.076;2022-12-31T15:34:27;100548.34;;;14.98;73.48
64158;BME280;50449;51.528;5.076;2022-12-31T15:36:54;100539.09;;;14.99;73.40
64158;BME280;50449;51.528;5.076;2022-12-31T15:39:24;100536.38;;;14.99;73.29
64158;BME280;50449;51.528;5.076;2022-12-31T15:41:50;100550.81;;;15.00;73.56
64158;BME280;50449;51.528;5.076;2022-12-31T15:47:09;100553.78;;;14.98;73.42
64158;BME280;50449;51.528;5.076;2022-12-31T15:49:39;100537.22;;;15.00;73.40
64158;BME280;50449;51.528;5.076;2022-12-31T15:52:06;100551.88;;;14.99;73.37
64158;BME280;50449;51.528;5.076;2022-12-31T15:54:39;100545.38;;;15.00;73.54
64158;BME280;50449;51.528;5.076;2022-12-31T15:57:06;100544.53;;;14.99;73.55
64158;BME280;50449;51.528;5.076;2022-12-31T15:59:36;100541.81;;;14.99;73.64
64158;BME280;50449;51.528;5.076;2022-12-31T16:02:03;100528.22;;;14.99;73.07
64158;BME280;50449;51.528;5.076;2022-12-31T16:04:29;100534.75;;;14.98;73.01
64158;BME280;50449;51.528;5.076;2022-12-31T16:07:00;100540.19;;;14.98;73.59
64158;BME280;50449;51.528;5.076;2022-12-31T16:09:27;100522.25;;;14.97;73.17
64158;BME280;50449;51.528;5.076;2022-12-31T16:11:53;100511.09;;;14.99;73.55
64158;BME280;50449;51.528;5.076;2022-12-31T16:14:24;100513.00;;;14.98;72.99
64158;BME280;50449;51.528;5.076;2022-12-31T16:16:50;100511.38;;;14.97;73.18
64158;BME280;50449;51.528;5.076;2022-12-31T16:19:33;100520.34;;;14.98;73.17
64158;BME280;50449;51.528;5.076;2022-12-31T16:22:06;100518.44;;;14.98;73.56
64158;BME280;50449;51.528;5.076;2022-12-31T16:24:32;100536.66;;;14.98;73.53
64158;BME280;50449;51.528;5.076;2022-12-31T16:26:59;100528.22;;;14.99;73.39
64158;BME280;50449;51.528;5.076;2022-12-31T16:29:25;100521.97;;;14.99;72.93
64158;BME280;50449;51.528;5.076;2022-12-31T16:31:51;100515.72;;;14.98;72.78
64158;BME280;50449;51.528;5.076;2022-12-31T16:34:21;100520.34;;;14.98;73.30
64158;BME280;50449;51.528;5.076;2022-12-31T16:36:54;100520.34;;;14.98;72.78
64158;BME280;50449;51.528;5.076;2022-12-31T16:41:52;100510.28;;;14.98;72.89
64158;BME280;50449;51.528;5.076;2022-12-31T16:44:27;100520.34;;;14.98;72.94
64158;BME280;50449;51.528;5.076;2022-12-31T16:46:56;100524.13;;;14.97;72.65
64158;BME280;50449;51.528;5.076;2022-12-31T16:49:22;100521.41;;;14.97;72.63
64158;BME280;50449;51.528;5.076;2022-12-31T16:51:48;100509.72;;;14.96;72.41
64158;BME280;50449;51.528;5.076;2022-12-31T16:54:25;100521.72;;;14.95;72.37
64158;BME280;50449;51.528;5.076;2022-12-31T16:56:52;100510.03;;;14.95;72.65
64158;BME280;50449;51.528;5.076;2022-12-31T17:01:44;100503.75;;;14.94;72.73
64158;BME280;50449;51.528;5.076;2022-12-31T17:04:10;100494.50;;;14.95;72.91
64158;BME280;50449;51.528;5.076;2022-12-31T17:06:38;100487.44;;;14.94;72.79
64158;BME280;50449;51.528;5.076;2022-12-31T17:09:14;100510.03;;;14.95;72.40
64158;BME280;50449;51.528;5.076;2022-12-31T17:11:54;100514.94;;;14.92;72.65
64158;BME280;50449;51.528;5.076;2022-12-31T17:14:21;100510.28;;;14.93;72.90
64158;BME280;50449;51.528;5.076;2022-12-31T17:17:03;100509.47;;;14.92;72.70
64158;BME280;50449;51.528;5.076;2022-12-31T17:22:08;100484.47;;;14.90;72.68
64158;BME280;50449;51.528;5.076;2022-12-31T17:24:34;100482.56;;;14.91;72.67